Flight Track Log - Related Links

Times and Time Zones

All times are in EDT time to prevent confusion due to time zone crossing. See the BBA13 flight status page for this flight to view local times or setup timezone preferences in your user account.

Time Position Orientation Groundspeed Altitude Reporting Facility
EDT Latitude Longitude Course Direction KTS MPH feet Rate Location/Type
Thu 04:29:02 PM 43.7840 -79.5080 324° Northwest 191 220 1,500  Level FlightAware ADS-B
Thu 04:29:22 PM 43.7980 -79.5220 324° Northwest 199 229 2,000 1,650 Climbing FlightAware ADS-B
Thu 04:29:42 PM 43.8130 -79.5390 321° Northwest 246 283 2,600 3,867 Climbing FlightAware ADS-B
Thu 04:30:07 PM 43.8400 -79.5640 326° Northwest 248 285 4,900 5,486 Climbing FlightAware ADS-B
Thu 04:30:17 PM 43.8510 -79.5680 345° North 248 285 5,800 4,800 Climbing FlightAware ADS-B
Thu 04:30:27 PM 43.8600 -79.5680 360° North 244 281 6,500 2,200 Climbing FlightAware ADS-B
Thu 04:30:47 PM 43.8840 -79.5680 360° North 241 277 6,900 625 Climbing FlightAware ADS-B
Thu 04:31:15 PM 43.9120 -79.5700 357° North 232 267 7,000 1,125 Climbing FlightAware ADS-B
Thu 04:31:35 PM 43.9360 -79.5740 353° North 238 274 7,800 3,409 Climbing FlightAware ADS-B
Thu 04:31:59 PM 43.9620 -79.5780 354° North 240 276 9,500 4,356 Climbing FlightAware ADS-B
Thu 04:32:48 PM 44.0190 -79.5770 North 252 290 13,100 3,805 Climbing FlightAware ADS-B
Thu 04:33:21 PM 44.0580 -79.5610 16° North 268 308 14,700 1,543 Climbing FlightAware ADS-B
Thu 04:33:58 PM 44.1010 -79.5400 19° North 265 305 14,900 164 Climbing FlightAware ADS-B
Thu 04:34:34 PM 44.1430 -79.5150 23° Northeast 268 308 14,900  Level FlightAware ADS-B
Thu 04:35:05 PM 44.1760 -79.4920 27° Northeast 269 310 14,900  Level FlightAware ADS-B
Thu 04:35:39 PM 44.2160 -79.4660 25° Northeast 271 312 14,900  Level FlightAware ADS-B
Thu 04:36:16 PM 44.2580 -79.4380 26° Northeast 270 311 14,900  Level FlightAware ADS-B
Thu 04:36:51 PM 44.2970 -79.4120 26° Northeast 270 311 14,900  Level FlightAware ADS-B
Thu 04:37:28 PM 44.3380 -79.3850 25° Northeast 270 311 14,900  Level FlightAware ADS-B
Thu 04:38:01 PM 44.3740 -79.3600 26° Northeast 249 287 14,900  Level FlightAware ADS-B
Thu 04:38:37 PM 44.4090 -79.3370 25° Northeast 221 254 14,900  Level FlightAware ADS-B
Thu 04:39:07 PM 44.4360 -79.3170 28° Northeast 220 253 14,900  Level FlightAware ADS-B
Thu 04:39:39 PM 44.4650 -79.2970 26° Northeast 208 239 14,900  Level FlightAware ADS-B
Thu 04:40:10 PM 44.4900 -79.2790 27° Northeast 195 224 14,900  Level FlightAware ADS-B
Thu 04:40:51 PM 44.5230 -79.2540 28° Northeast 185 213 14,900  Level FlightAware ADS-B
Thu 04:41:26 PM 44.5470 -79.2340 31° Northeast 172 198 14,900  Level FlightAware ADS-B
Thu 04:42:03 PM 44.5720 -79.2150 28° Northeast 172 198 14,900  Level FlightAware ADS-B
Thu 04:42:35 PM 44.5950 -79.1980 28° Northeast 169 194 14,900  Level FlightAware ADS-B
Thu 04:43:10 PM 44.6240 -79.1760 28° Northeast 218 251 14,900 358 Level FlightAware ADS-B
Thu 04:43:42 PM 44.6570 -79.1520 27° Northeast 287 330 15,300 917 Climbing FlightAware ADS-B
Thu 04:44:22 PM 44.7120 -79.1160 25° Northeast 364 419 16,000 1,378 Climbing FlightAware ADS-B
Thu 04:44:56 PM 44.7680 -79.0800 25° Northeast 401 461 17,000 2,486 Climbing FlightAware ADS-B
Thu 04:45:32 PM 44.8300 -79.0400 25° Northeast 413 475 18,900 3,217 Climbing FlightAware ADS-B
Thu 04:46:05 PM 44.8860 -79.0020 26° Northeast 420 483 20,700 3,086 Climbing FlightAware ADS-B
Thu 04:46:42 PM 44.9530 -78.9580 25° Northeast 436 502 22,500 2,824 Climbing FlightAware ADS-B
Thu 04:47:13 PM 45.0090 -78.9210 25° Northeast 448 516 23,900 2,559 Climbing FlightAware ADS-B
Thu 04:47:50 PM 45.0770 -78.8740 26° Northeast 462 532 25,400 2,704 Climbing FlightAware ADS-B
Thu 04:48:24 PM 45.1470 -78.8280 25° Northeast 469 540 27,100 2,522 Climbing FlightAware ADS-B
Thu 04:48:59 PM 45.2160 -78.7800 26° Northeast 483 556 28,300 2,000 Climbing FlightAware ADS-B
Thu 04:49:36 PM 45.2910 -78.7290 26° Northeast 498 573 29,500 2,219 Climbing FlightAware ADS-B
Thu 04:50:12 PM 45.3660 -78.6790 25° Northeast 500 575 31,000 1,304 Climbing FlightAware ADS-B
Thu 04:50:45 PM 45.4380 -78.6320 25° Northeast 526 605 31,000  Level FlightAware ADS-B
Thu 04:51:20 PM 45.5160 -78.5810 25° Northeast 529 609 31,000  Level FlightAware ADS-B
Thu 04:51:53 PM 45.5900 -78.5330 24° Northeast 528 608 31,000  Level FlightAware ADS-B
Thu 04:52:30 PM 45.6730 -78.4790 24° Northeast 529 609 31,000  Level FlightAware ADS-B
Thu 04:53:05 PM 45.7460 -78.4290 26° Northeast 528 608 31,000  Level FlightAware ADS-B
Thu 04:53:42 PM 45.8290 -78.3720 26° Northeast 529 609 31,000  Level FlightAware ADS-B
Thu 04:54:18 PM 45.9050 -78.3210 25° Northeast 529 609 31,000 1,164 Level FlightAware ADS-B
Thu 04:54:49 PM 45.9780 -78.2720 25° Northeast 519 597 32,300 3,265 Climbing FlightAware ADS-B
Thu 04:55:26 PM 46.0570 -78.2180 25° Northeast 502 578 34,700 3,000 Climbing FlightAware ADS-B
Thu 04:56:03 PM 46.1290 -78.1520 32° Northeast 497 572 36,000 1,130 Climbing FlightAware ADS-B
Thu 04:56:35 PM 46.1890 -78.0900 36° Northeast 498 573 36,000  Level FlightAware ADS-B
Thu 04:57:03 PM 46.2430 -78.0420 32° Northeast 486 559 36,000  Level FlightAware ADS-B
Thu 04:57:25 PM 46.2900 -78.0230 16° North 470 541 36,000 310 Level FlightAware ADS-B
Thu 04:58:01 PM 46.3650 -78.0320 355° North 444 511 36,300 1,102 Climbing FlightAware ADS-B
Thu 04:58:14 PM 46.3900 -78.0470 338° Northwest 427 491 36,900 3,706 Climbing FlightAware ADS-B
Thu 04:58:35 PM 46.4210 -78.0810 323° Northwest 399 459 38,400 3,243 Climbing FlightAware ADS-B
Thu 04:58:51 PM 46.4400 -78.1130 311° West 397 457 38,900 1,286 Climbing FlightAware ADS-B
Thu 04:59:03 PM 46.4510 -78.1410 300° West 403 464 39,000 563 Climbing FlightAware ADS-B
Thu 04:59:23 PM 46.4610 -78.1940 285° West 411 473 39,200 1,565 Climbing FlightAware ADS-B
Thu 05:00:12 PM 46.4420 -78.3200 258° West 414 476 40,800 1,714 Climbing FlightAware ADS-B
Thu 05:00:26 PM 46.4270 -78.3510 235° Southwest 413 475 41,000 400 Climbing FlightAware ADS-B
Thu 05:00:42 PM 46.4030 -78.3820 222° Southwest 409 471 41,000  Level FlightAware ADS-B
Thu 05:01:02 PM 46.3700 -78.4070 208° Southwest 425 489 41,000  Level FlightAware ADS-B
Thu 05:01:23 PM 46.3270 -78.4200 192° South 448 516 41,000  Level FlightAware ADS-B
Thu 05:01:43 PM 46.2890 -78.4180 178° South 463 533 41,000  Level FlightAware ADS-B
Thu 05:02:17 PM 46.2120 -78.4000 171° South 465 535 41,000  Level FlightAware ADS-B
Thu 05:02:56 PM 46.1310 -78.3800 170° South 464 534 41,000 86 Level FlightAware ADS-B
Thu 05:03:27 PM 46.0670 -78.3640 170° South 464 534 41,100  Climbing FlightAware ADS-B
Thu 05:04:04 PM 45.9850 -78.3440 170° South 481 554 41,000 -81 Descending FlightAware ADS-B
Thu 05:04:41 PM 45.9040 -78.3270 172° South 496 571 41,000  Level FlightAware ADS-B
Thu 05:05:13 PM 45.8300 -78.3100 171° South 499 574 41,000  Level FlightAware ADS-B
Thu 05:05:46 PM 45.7530 -78.2930 171° South 501 577 41,000  Level FlightAware ADS-B
Thu 05:06:25 PM 45.6650 -78.2740 171° South 509 586 41,000  Level FlightAware ADS-B
Thu 05:07:00 PM 45.5850 -78.2570 172° South 517 595 41,000 91 Level FlightAware ADS-B
Thu 05:07:31 PM 45.5100 -78.2440 173° South 509 586 41,100 333 Climbing FlightAware ADS-B
Thu 05:07:54 PM 45.4560 -78.2530 187° South 490 564 41,300 500 Climbing FlightAware ADS-B
Thu 05:08:31 PM 45.3790 -78.2930 200° South 483 556 41,600 583 Climbing FlightAware ADS-B
Thu 05:09:06 PM 45.3110 -78.3390 205° Southwest 475 547 42,000 716 Climbing FlightAware ADS-B
Thu 05:09:38 PM 45.2460 -78.3900 209° Southwest 475 547 42,400 783 Climbing FlightAware ADS-B
Thu 05:10:15 PM 45.1750 -78.4470 210° Southwest 475 547 42,900 904 Climbing FlightAware ADS-B
Thu 05:10:51 PM 45.1070 -78.5040 211° Southwest 473 544 43,500 870 Climbing FlightAware ADS-B
Thu 05:11:24 PM 45.0660 -78.5390 211° Southwest 470 541 43,900 1,000 Climbing FlightAware ADS-B
Thu 05:11:57 PM 44.9870 -78.6120 213° Southwest 459 528 44,600 1,080 Climbing FlightAware ADS-B
Thu 05:12:14 PM 44.9630 -78.6490 227° Southwest 446 513 44,800 833 Climbing FlightAware ADS-B
Thu 05:12:33 PM 44.9440 -78.6980 241° Southwest 434 499 45,100 973 Climbing FlightAware ADS-B
Thu 05:12:51 PM 44.9350 -78.7440 255° West 425 489 45,400 840 Climbing FlightAware ADS-B
Thu 05:13:23 PM 44.9390 -78.8280 274° West 418 481 45,800 750 Climbing FlightAware ADS-B
Thu 05:13:39 PM 44.9510 -78.8690 292° West 419 482 46,000 643 Climbing FlightAware ADS-B
Thu 05:13:51 PM 44.9640 -78.8960 304° West 420 483 46,100 643 Climbing FlightAware ADS-B
Thu 05:14:07 PM 44.9850 -78.9260 315° West 426 490 46,300 514 Climbing FlightAware ADS-B
Thu 05:14:26 PM 45.0200 -78.9560 329° Northwest 437 503 46,400 450 Climbing FlightAware ADS-B
Thu 05:14:47 PM 45.0610 -78.9720 345° North 448 516 46,600 632 Climbing FlightAware ADS-B
Thu 05:15:23 PM 45.1370 -78.9650 North 465 535 47,000 333 Climbing FlightAware ADS-B
Thu 05:15:59 PM 45.2080 -78.9460 11° North 462 532 47,000  Level FlightAware ADS-B
Thu 05:16:35 PM 45.2830 -78.9260 11° North 443 510 47,000  Level FlightAware ADS-B
Thu 05:17:08 PM 45.3500 -78.9070 11° North 449 517 47,000  Level FlightAware ADS-B
Thu 05:17:44 PM 45.4270 -78.8850 11° North 450 518 47,000  Level FlightAware ADS-B
Thu 05:18:19 PM 45.4940 -78.8660 11° North 459 528 47,000  Level FlightAware ADS-B
Thu 05:18:51 PM 45.5630 -78.8430 13° North 469 540 47,000  Level FlightAware ADS-B
Thu 05:19:26 PM 45.6410 -78.8160 14° North 475 547 47,000  Level FlightAware ADS-B
Thu 05:20:05 PM 45.7210 -78.7880 14° North 480 552 47,000  Level FlightAware ADS-B
Thu 05:20:37 PM 45.7910 -78.7640 13° North 481 554 47,000  Level FlightAware ADS-B
Thu 05:21:13 PM 45.8670 -78.7370 14° North 482 555 47,000 85 Level FlightAware ADS-B
Thu 05:21:48 PM 45.9450 -78.7100 14° North 482 555 47,100 338 Climbing FlightAware ADS-B
Thu 05:22:24 PM 46.0260 -78.6820 13° North 483 556 47,400 435 Climbing FlightAware ADS-B
Thu 05:22:57 PM 46.0970 -78.6570 14° North 481 554 47,600 441 Climbing FlightAware ADS-B
Thu 05:23:32 PM 46.1730 -78.6310 13° North 479 551 47,900 423 Climbing FlightAware ADS-B
Thu 05:24:08 PM 46.2510 -78.6030 14° North 476 548 48,100 411 Climbing FlightAware ADS-B
Thu 05:24:45 PM 46.3270 -78.5770 13° North 474 545 48,400 348 Climbing FlightAware ADS-B
Thu 05:25:17 PM 46.3960 -78.5530 13° North 473 544 48,500 265 Climbing FlightAware ADS-B
Thu 05:25:53 PM 46.4730 -78.5270 13° North 472 543 48,700 338 Climbing FlightAware ADS-B
Thu 05:26:28 PM 46.5490 -78.5000 14° North 472 543 48,900 174 Climbing FlightAware ADS-B
Thu 05:27:02 PM 46.6200 -78.4750 14° North 473 544 48,900 -36 Level FlightAware ADS-B
Thu 05:27:22 PM 46.6640 -78.4600 13° North 472 543 -38 Descending FlightAware ADS-B
Thu 05:27:47 PM 46.7140 -78.4420 14° North 473 544 2,634 Level FlightAware ADS-B
Thu 05:28:07 PM 46.7570 -78.4260 14° North 471 542 2,695 Level FlightAware ADS-B
Thu 05:28:27 PM 46.7990 -78.4110 14° North 470 541 2,746 Level FlightAware ADS-B
Thu 05:28:39 PM 46.8240 -78.4020 14° North 471 542 2,800 Level FlightAware ADS-B
Thu 05:29:03 PM 46.8750 -78.3830 14° North 469 540 2,833 Level FlightAware ADS-B
Thu 05:29:24 PM 46.9210 -78.3680 13° North 469 540 2,901 Level FlightAware ADS-B
Thu 05:29:44 PM 46.9630 -78.3530 14° North 468 539 2,963 Level FlightAware ADS-B
Thu 05:30:02 PM 47.0010 -78.3400 13° North 466 536 3,025 Level FlightAware ADS-B
Thu 05:30:21 PM 47.0390 -78.3280 12° North 464 534 3,083 Level FlightAware ADS-B
Thu 05:30:40 PM 47.0800 -78.3150 12° North 461 531 3,147 Level FlightAware ADS-B
Thu 05:31:02 PM 47.1260 -78.3000 13° North 460 529 3,213 Level FlightAware ADS-B
Thu 05:31:12 PM 47.1470 -78.2930 13° North 460 529 3,294 Level FlightAware ADS-B
Thu 05:31:34 PM 47.1930 -78.2790 12° North 460 529 3,332 Level FlightAware ADS-B
Thu 05:31:57 PM 47.2390 -78.2650 12° North 458 527 3,418 Level FlightAware ADS-B
Thu 05:32:18 PM 47.2820 -78.2510 12° North 456 525 3,514 Level FlightAware ADS-B
Thu 05:32:38 PM 47.3250 -78.2380 12° North 456 525 3,606 Level FlightAware ADS-B
Thu 05:32:55 PM 47.3600 -78.2280 11° North 455 524 3,698 Level FlightAware ADS-B
Thu 05:33:15 PM 47.3990 -78.2160 12° North 456 525 3,780 Level FlightAware ADS-B
Thu 05:33:35 PM 47.4420 -78.2030 12° North 455 524 3,882 Level FlightAware ADS-B
Thu 05:33:55 PM 47.4810 -78.1910 12° North 454 522 3,989 Level FlightAware ADS-B
Thu 05:34:06 PM 47.5050 -78.1840 11° North 454 522 4,102 Level FlightAware ADS-B
Thu 05:34:33 PM 47.5590 -78.1680 11° North 453 521 4,167 Level FlightAware ADS-B
Thu 05:34:49 PM 47.5930 -78.1570 12° North 453 521 4,336 Level FlightAware ADS-B
Thu 05:35:05 PM 47.6260 -78.1480 10° North 453 521 4,442 Level FlightAware ADS-B
Thu 05:35:25 PM 47.6680 -78.1350 12° North 451 519 4,554 Level FlightAware ADS-B
Thu 05:35:45 PM 47.7060 -78.1230 12° North 450 518 4,702 Level FlightAware ADS-B
Thu 05:36:06 PM 47.7510 -78.1100 11° North 450 518 4,861 Level FlightAware ADS-B
Thu 05:36:31 PM 47.8010 -78.0940 12° North 448 516 5,038 Level FlightAware ADS-B
Thu 05:37:01 PM 47.8560 -78.0780 11° North 448 516 5,268 Level FlightAware ADS-B
Thu 05:37:11 PM 47.8770 -78.0710 13° North 222 255 5,572 Level FlightAware ADS-B
Thu 05:37:48 PM 47.9510 -78.0460 13° North 450 518 5,682 Level FlightAware ADS-B
Thu 05:38:06 PM 47.9870 -78.0220 24° Northeast 461 531 6,127 Level FlightAware ADS-B
Thu 05:38:18 PM 48.0080 -77.9990 36° Northeast 467 537 6,370 Level FlightAware ADS-B
Thu 05:38:59 PM 48.0660 -77.9120 45° Northeast 472 543 6,543 Level FlightAware ADS-B
Thu 05:39:46 PM 48.0680 -77.7300 89° East 496 571 7,212 Level FlightAware ADS-B
Thu 05:40:01 PM 48.0580 -77.6770 106° East 495 570 8,169 Level FlightAware ADS-B
Thu 05:40:13 PM 48.0460 -77.6420 117° Southeast 494 568 8,531 Level FlightAware ADS-B
Thu 05:40:29 PM 48.0250 -77.5970 125° Southeast 488 562 8,844 Level FlightAware ADS-B
Thu 05:40:41 PM 48.0060 -77.5680 134° Southeast 483 556 9,299 Level FlightAware ADS-B
Thu 05:40:56 PM 47.9790 -77.5400 145° Southeast 476 548 9,672 Level FlightAware ADS-B
Thu 05:41:18 PM 47.9340 -77.5110 157° South 463 533 10,183 Level FlightAware ADS-B
Thu 05:41:39 PM 47.8920 -77.5030 173° South 452 520 11,038 Level FlightAware ADS-B
Thu 05:41:59 PM 47.8510 -77.5030 180° South 450 518 12,000 Level FlightAware ADS-B
Thu 05:42:19 PM 47.8080 -77.5040 181° South 447 514 13,086 Level FlightAware ADS-B
Thu 05:42:36 PM 47.7730 -77.5130 190° South 438 504 14,388 Level FlightAware ADS-B
Thu 05:42:56 PM 47.7350 -77.5280 195° South 437 503 15,717 Level FlightAware ADS-B
Thu 05:43:13 PM 47.7020 -77.5420 196° South 436 502 17,634 Level FlightAware ADS-B
Thu 05:43:35 PM 47.6600 -77.5600 196° South 436 502 19,673 Level FlightAware ADS-B
Thu 05:43:49 PM 47.6320 -77.5730 197° South 437 503 23,136 Level FlightAware ADS-B
Thu 05:44:09 PM 47.5940 -77.5890 196° South 436 502 26,054 Level FlightAware ADS-B
Thu 05:44:35 PM 47.5440 -77.6110 197° South 436 502 31,780 Level FlightAware ADS-B
Thu 05:44:54 PM 47.5060 -77.6270 196° South 441 507 44,492 Level FlightAware ADS-B
Thu 05:45:10 PM 47.4740 -77.6400 195° South 454 522 62,870 Level FlightAware ADS-B
Thu 05:45:40 PM 47.4110 -77.6650 195° South 468 539 48,200 40,299 Climbing FlightAware ADS-B
Thu 05:46:17 PM 47.3390 -77.6910 194° South 469 540 45,000 -5,918 Descending FlightAware ADS-B
Thu 05:46:53 PM 47.2600 -77.7190 194° South 457 526 41,000 -8,167 Descending FlightAware ADS-B
Thu 05:47:29 PM 47.1850 -77.7450 193° South 477 549 35,200 -8,118 Descending FlightAware ADS-B
Thu 05:48:01 PM 47.1150 -77.7690 193° South 481 554 31,800 -3,706 Descending FlightAware ADS-B
Thu 05:48:37 PM 47.0370 -77.7970 194° South 480 552 31,000 -667 Descending FlightAware ADS-B
Thu 05:49:13 PM 46.9580 -77.8270 195° South 503 579 31,000  Level FlightAware ADS-B
Thu 05:49:44 PM 46.8900 -77.8590 198° South 502 578 31,000  Level FlightAware ADS-B
Thu 05:50:25 PM 46.7980 -77.9030 198° South 501 577 31,000  Level FlightAware ADS-B
Thu 05:50:56 PM 46.7310 -77.9350 198° South 501 577 31,000  Level FlightAware ADS-B
Thu 05:51:34 PM 46.6470 -77.9750 198° South 499 574 31,000  Level FlightAware ADS-B
Thu 05:52:07 PM 46.5740 -78.0090 198° South 499 574 31,000  Level FlightAware ADS-B
Thu 05:52:43 PM 46.4950 -78.0460 198° South 501 577 31,000  Level FlightAware ADS-B
Thu 05:53:16 PM 46.4210 -78.0810 198° South 503 579 31,000  Level FlightAware ADS-B
Thu 05:53:53 PM 46.3390 -78.1190 198° South 505 581 31,000  Level FlightAware ADS-B
Thu 05:54:29 PM 46.2620 -78.1550 198° South 506 582 31,000  Level FlightAware ADS-B
Thu 05:55:05 PM 46.1800 -78.1930 198° South 507 583 31,000  Level FlightAware ADS-B
Thu 05:55:38 PM 46.1050 -78.2270 197° South 507 583 31,000  Level FlightAware ADS-B
Thu 05:56:15 PM 46.0240 -78.2650 198° South 507 583 31,000  Level FlightAware ADS-B
Thu 05:56:45 PM 45.9570 -78.2950 197° South 506 582 31,000  Level FlightAware ADS-B
Thu 05:57:25 PM 45.8680 -78.3360 198° South 506 582 31,000  Level FlightAware ADS-B
Thu 05:58:01 PM 45.7880 -78.3730 198° South 506 582 31,000  Level FlightAware ADS-B
Thu 05:58:35 PM 45.7110 -78.4080 198° South 507 583 31,000  Level FlightAware ADS-B
Thu 05:59:09 PM 45.6370 -78.4420 198° South 506 582 31,000  Level FlightAware ADS-B
Thu 05:59:41 PM 45.5640 -78.4740 197° South 507 583 31,000 -1,182 Level FlightAware ADS-B
Thu 06:00:15 PM 45.4890 -78.5080 198° South 502 578 29,700 -2,384 Descending FlightAware ADS-B
Thu 06:00:54 PM 45.4050 -78.5460 198° South 494 568 28,100 -2,480 Descending FlightAware ADS-B
Thu 06:01:30 PM 45.3310 -78.5800 198° South 478 550 26,600 -2,597 Descending FlightAware ADS-B
Thu 06:02:01 PM 45.2620 -78.6100 197° South 472 543 25,200 -2,522 Descending FlightAware ADS-B
Thu 06:02:39 PM 45.1860 -78.6440 198° South 461 531 23,700 -2,432 Descending FlightAware ADS-B
Thu 06:03:15 PM 45.1110 -78.6780 198° South 456 525 22,200 -2,471 Descending FlightAware ADS-B
Thu 06:03:47 PM 45.0480 -78.7060 197° South 444 511 20,900 -2,348 Descending FlightAware ADS-B
Thu 06:04:24 PM 44.9750 -78.7380 197° South 440 506 19,500 -2,301 Descending FlightAware ADS-B
Thu 06:05:00 PM 44.9050 -78.7690 197° South 426 490 18,100 -2,328 Descending FlightAware ADS-B
Thu 06:05:31 PM 44.8490 -78.7930 197° South 401 461 16,900 -2,143 Descending FlightAware ADS-B
Thu 06:06:10 PM 44.7830 -78.8230 198° South 368 423 15,600 -1,971 Descending FlightAware ADS-B
Thu 06:06:41 PM 44.7330 -78.8450 197° South 367 422 14,600 -1,941 Descending FlightAware ADS-B
Thu 06:07:18 PM 44.6730 -78.8710 197° South 359 413 13,400 -1,944 Descending FlightAware ADS-B
Thu 06:07:52 PM 44.6210 -78.8930 197° South 338 389 12,300 -1,826 Descending FlightAware ADS-B
Thu 06:08:27 PM 44.5700 -78.9160 198° South 315 362 11,300 -1,667 Descending FlightAware ADS-B
Thu 06:09:04 PM 44.5210 -78.9370 197° South 293 337 10,300 -1,607 Descending FlightAware ADS-B
Thu 06:09:23 PM 44.4960 -78.9480 197° South 284 327 9,800 -1,500 Descending FlightAware ADS-B
Thu 06:09:48 PM 44.4650 -78.9610 197° South 280 322 9,200 -1,395 Descending FlightAware ADS-B
Thu 06:10:06 PM 44.4430 -78.9710 198° South 278 320 8,800 -1,448 Descending FlightAware ADS-B
Thu 06:10:17 PM 44.4300 -78.9770 198° South 279 321 8,500 -1,622 Descending FlightAware ADS-B
Thu 06:10:43 PM 44.3970 -78.9910 197° South 280 322 7,800 -1,435 Descending FlightAware ADS-B
Thu 06:11:03 PM 44.3730 -79.0010 197° South 277 319 7,400 -1,256 Descending FlightAware ADS-B
Thu 06:11:26 PM 44.3500 -79.0110 197° South 271 312 6,900 -1,535 Descending FlightAware ADS-B
Thu 06:11:46 PM 44.3210 -79.0240 198° South 266 306 6,300 -1,538 Descending FlightAware ADS-B
Thu 06:12:05 PM 44.2980 -79.0340 197° South 266 306 5,900 -1,395 Descending FlightAware ADS-B
Thu 06:12:29 PM 44.2710 -79.0450 196° South 264 304 5,300 -1,297 Descending FlightAware ADS-B
Thu 06:12:42 PM 44.2570 -79.0550 207° Southwest 262 302 5,100 -900 Descending FlightAware ADS-B
Thu 06:12:49 PM 44.2500 -79.0630 219° Southwest 261 300 5,000 -800 Descending FlightAware ADS-B
Thu 06:12:57 PM 44.2440 -79.0720 227° Southwest 261 300 4,900 -857 Descending FlightAware ADS-B
Thu 06:13:17 PM 44.2310 -79.1020 239° Southwest 257 296 4,600 -1,077 Descending FlightAware ADS-B
Thu 06:13:36 PM 44.2190 -79.1300 239° Southwest 248 285 4,200 -977 Descending FlightAware ADS-B
Thu 06:14:00 PM 44.2060 -79.1620 240° Southwest 234 269 3,900 -409 Descending FlightAware ADS-B
Thu 06:14:20 PM 44.1960 -79.1880 242° Southwest 236 272 3,900  Level FlightAware ADS-B
Thu 06:14:34 PM 44.1880 -79.2070 240° Southwest 235 270 3,900  Level FlightAware ADS-B
Thu 06:14:56 PM 44.1770 -79.2360 242° Southwest 234 269 3,900  Level FlightAware ADS-B
Thu 06:15:16 PM 44.1670 -79.2620 242° Southwest 235 270 3,900  Level FlightAware ADS-B
Thu 06:15:35 PM 44.1560 -79.2870 238° Southwest 235 270 3,900  Level FlightAware ADS-B
Thu 06:16:00 PM 44.1430 -79.3200 241° Southwest 235 270 3,900  Level FlightAware ADS-B
Thu 06:16:19 PM 44.1330 -79.3450 241° Southwest 234 269 3,900  Level FlightAware ADS-B
Thu 06:16:40 PM 44.1220 -79.3730 241° Southwest 232 267 3,900  Level FlightAware ADS-B
Thu 06:17:00 PM 44.1110 -79.3990 239° Southwest 230 265 3,900  Level FlightAware ADS-B
Thu 06:17:21 PM 44.1000 -79.4270 241° Southwest 229 264 3,900  Level FlightAware ADS-B
Thu 06:17:37 PM 44.0920 -79.4470 241° Southwest 230 265 3,900 -162 Level FlightAware ADS-B
Thu 06:17:58 PM 44.0810 -79.4740 240° Southwest 230 265 3,800 -585 Descending FlightAware ADS-B
Thu 06:18:18 PM 44.0710 -79.5000 242° Southwest 230 265 3,500 -955 Descending FlightAware ADS-B
Thu 06:18:42 PM 44.0570 -79.5280 235° Southwest 231 266 3,100 -1,071 Descending FlightAware ADS-B
Thu 06:18:46 PM 44.0530 -79.5320 216° Southwest 229 264 3,000 -1,200 Descending FlightAware ADS-B
Thu 06:18:52 PM 44.0480 -79.5370 216° Southwest 227 261 2,900 -800 Descending FlightAware ADS-B
Thu 06:19:01 PM 44.0380 -79.5420 200° South 225 259 2,800 -1,034 Descending FlightAware ADS-B
Thu 06:19:21 PM 44.0190 -79.5500 197° South 219 252 2,400 -706 Descending FlightAware ADS-B
Thu 06:19:35 PM 44.0070 -79.5550 197° South 210 242 2,400  Level FlightAware ADS-B
Thu 06:19:53 PM 43.9890 -79.5630 198° South 207 238 2,400  Level FlightAware ADS-B
Thu 06:20:19 PM 43.9660 -79.5720 196° South 206 237 2,400  Level FlightAware ADS-B
Thu 06:20:39 PM 43.9480 -79.5800 198° South 199 229 2,400  Level FlightAware ADS-B
Thu 06:21:00 PM 43.9310 -79.5870 197° South 186 214 2,400 -293 Level FlightAware ADS-B
Thu 06:21:20 PM 43.9130 -79.5940 196° South 183 211 2,200 -514 Descending FlightAware ADS-B
Thu 06:21:35 PM 43.9020 -79.5980 195° South 183 211 2,100 -500 Descending FlightAware ADS-B
Thu 06:21:44 PM 43.8940 -79.5970 175° South 180 207 2,000 -923 Descending FlightAware ADS-B
Thu 06:21:48 PM 43.8890 -79.5960 172° South 177 204 1,900 -545 Descending FlightAware ADS-B
Thu 06:21:55 PM 43.8850 -79.5930 152° Southeast 177 204 1,900  Level FlightAware ADS-B
Thu 06:22:16 PM 43.8700 -79.5810 150° Southeast 173 199 1,900  Level FlightAware ADS-B
Thu 06:22:32 PM 43.8600 -79.5720 147° Southeast 173 199 1,900  Level FlightAware ADS-B
Thu 06:22:51 PM 43.8460 -79.5600 148° Southeast 174 200 1,900  Level FlightAware ADS-B
Thu 06:23:12 PM 43.8320 -79.5470 146° Southeast 174 200 1,900 -176 Level FlightAware ADS-B
Thu 06:23:25 PM 43.8230 -79.5390 147° Southeast 167 192 1,800 -343 Descending FlightAware ADS-B
Thu 06:23:47 PM 43.8110 -79.5280 147° Southeast 155 178 1,700 -286 Descending FlightAware ADS-B
Thu 06:24:07 PM 43.7990 -79.5180 149° Southeast 145 167 1,600 -391 Descending FlightAware ADS-B
Thu 06:24:33 PM 43.7870 -79.5070 147° Southeast 124 143 1,400 -511 Descending FlightAware ADS-B
Thu 06:24:54 PM 43.7790 -79.4990 144° Southeast 117 135 1,200 -571 Descending FlightAware ADS-B
Thu 06:25:15 PM 43.7680 -79.4910 152° Southeast 116 133 1,000 -511 Descending FlightAware ADS-B
Thu 06:25:41 PM 43.7560 -79.4800 146° Southeast 117 135 800 -522 Descending FlightAware ADS-B
Thu 06:26:01 PM 43.7470 -79.4700 141° Southeast 115 132 600 -600 Descending FlightAware ADS-B
Thu 06:26:20 PM 43.7430 -79.4650 138° Southeast 99 114 -1,895 Descending FlightAware ADS-B
Thu 06:26:44 PM 43.7400 -79.4630 154° Southeast 99 114  Level FlightAware ADS-B
Thu 06:27:18 PM 43.7360 -79.4500 113° Southeast 99 114  Level FlightAware ADS-B
Thu 06:27:47 PM 43.7430 -79.4660 301° West 99 114  Level FlightAware ADS-B
Thu 06:28:11 PM 43.7420 -79.4670 216° Southwest 99 114  Level FlightAware ADS-B
Thu 06:28:34 PM 43.7410 -79.4680 216° Southwest 99 114  Level FlightAware ADS-B
Thu 06:28:57 PM 43.7400 -79.4690 216° Southwest 99 114  Level FlightAware ADS-B
Thu 06:29:24 PM 43.7420 -79.4550 79° East 99 114  Level FlightAware ADS-B
Thu 06:34:00 PM 43.7333 -79.4500 North  Level FlightAware Approximate
Thu 06:35:00 PM 43.7425 -79.4656 North  Level Estimated

Login

Don't have an account? Register now (free) for customized features, flight alerts, and more!